Silverthorne, Colorado
Current Conditions -  °F | °C
As of 1:55 PM on Thursday 18 Dec 2014 (Local Time) from KCCU Reporting Station
Light Snow Light Snow  
Wind Chill:   Ceiling: 200
Heat Index: 19°   Visibility: 1.5mi
Dew Point: 14°   Wind: 16mph
Humidity: 80%   Direction: 280°W
Pressure: 30.02"   Gusts: NA
Location:  39.65°N, 106.08°W
Report Text: KCCU 182055Z AUTO 28014KT 1 1/2SM -SN OVC002 M07/M10 A3002 RMK AO2
Loading
Personal Weather Stations






























Interactive Weather Map New forecast layout! Learn more

10-Day Weather Forecast

Advertisements
Track Severe Weather on mobile